Time;durP1;ratioP1;P1;durP2;ratioP2;P2;SDS_P1;SDS_P2;PMS_P1;PMS_P2;Temp;Humidity;BMP_temperature;BMP_pressure;BME280_temperature;BME280_humidity;BME280_pressure;Samples;Min_cycle;Max_cycle;Signal;HPM_P1;HPM_P2
2022/08/31 00:04:43;;;;;;;3.00;2.80;;;;;;;15.66;85.61;101810.22;1939689;29;20468;-82
2022/08/31 00:05:41;;;;;;;5.18;3.10;;;;;;;15.69;90.18;101812.72;1939561;29;20031;-80
2022/08/31 00:06:38;;;;;;;5.13;2.95;;;;;;;15.69;86.51;101816.19;1939365;29;20403;-82
2022/08/31 00:07:36;;;;;;;4.43;3.33;;;;;;;15.69;90.42;101810.06;1938977;29;20460;-80
2022/08/31 00:08:33;;;;;;;7.15;3.00;;;;;;;15.68;87.21;101809.22;1946622;29;20120;-80
2022/08/31 00:09:31;;;;;;;4.80;3.00;;;;;;;15.69;87.97;101815.34;1946658;29;20066;-81
2022/08/31 00:10:29;;;;;;;3.55;2.90;;;;;;;15.70;86.83;101812.63;1939620;28;20027;-82
2022/08/31 00:11:29;;;;;;;4.40;3.00;;;;;;;15.71;87.80;101809.06;1939253;29;20051;-81
2022/08/31 00:12:26;;;;;;;4.30;3.10;;;;;;;15.71;86.86;101811.69;1946658;28;20031;-82
2022/08/31 00:13:26;;;;;;;3.50;2.90;;;;;;;15.73;87.18;101805.53;1947663;28;20037;-80
2022/08/31 00:14:24;;;;;;;3.78;3.03;;;;;;;15.71;87.33;101809.06;1940974;29;20027;-82
2022/08/31 00:15:23;;;;;;;4.53;2.92;;;;;;;15.70;87.83;101802.09;1940756;29;20050;-80
2022/08/31 00:16:23;;;;;;;4.10;3.08;;;;;;;15.70;89.44;101806.50;1948086;28;20073;-82
2022/08/31 00:17:20;;;;;;;3.70;3.15;;;;;;;15.69;87.50;101800.41;1948177;29;20038;-82
2022/08/31 00:18:19;;;;;;;5.78;3.10;;;;;;;15.69;88.74;101800.41;1941035;29;20052;-82
2022/08/31 00:19:17;;;;;;;3.17;2.85;;;;;;;15.71;87.47;101803.81;1940529;29;20031;-81
2022/08/31 00:20:17;;;;;;;3.03;2.72;;;;;;;15.69;88.68;101808.31;1940494;29;20118;-80
2022/08/31 00:21:15;;;;;;;;;;;;;;;15.66;90.32;101805.81;1933515;29;20084;-82
2022/08/31 00:22:15;;;;;;;5.78;2.90;;;;;;;15.66;88.37;101807.59;1940516;29;19941;-81
2022/08/31 00:23:17;;;;;;;3.13;2.78;;;;;;;15.69;88.04;101807.44;1947790;29;20122;-82
2022/08/31 00:24:15;;;;;;;4.88;3.40;;;;;;;15.70;87.74;101804.75;1940483;29;20036;-81
2022/08/31 00:25:13;;;;;;;3.88;3.22;;;;;;;15.66;88.79;101805.81;1940449;29;20427;-80
2022/08/31 00:26:10;;;;;;;3.13;2.83;;;;;;;15.67;90.02;101802.25;1947417;29;20027;-82
2022/08/31 00:27:08;;;;;;;4.25;2.80;;;;;;;15.67;88.93;101802.25;1948026;28;20041;-79
2022/08/31 00:28:08;;;;;;;3.65;2.85;;;;;;;15.69;88.66;101805.69;1941294;29;20117;-81
2022/08/31 00:29:06;;;;;;;4.93;3.03;;;;;;;15.70;89.16;101807.38;1940634;29;20451;-82
2022/08/31 00:30:06;;;;;;;5.18;2.95;;;;;;;15.75;88.09;101803.66;1940934;29;20042;-82
2022/08/31 00:31:04;;;;;;;4.35;3.03;;;;;;;15.70;88.55;101807.38;1947907;28;20023;-81
2022/08/31 00:32:01;;;;;;;3.40;3.10;;;;;;;15.70;91.34;101802.09;1948058;29;20015;-81
2022/08/31 00:32:59;;;;;;;4.40;3.15;;;;;;;15.67;88.78;101801.41;1941077;29;20023;-80
2022/08/31 00:33:57;;;;;;;4.10;3.08;;;;;;;15.65;91.54;101809.38;1940518;29;20028;-79
2022/08/31 00:34:54;;;;;;;4.68;2.83;;;;;;;15.68;88.82;101808.38;1933475;29;20059;-81
2022/08/31 00:35:52;;;;;;;5.72;3.10;;;;;;;15.67;90.72;101804.88;1940425;29;20131;-81
2022/08/31 00:36:49;;;;;;;8.70;3.20;;;;;;;15.69;89.10;101804.81;1947857;28;20353;-79
2022/08/31 00:37:47;;;;;;;5.30;3.00;;;;;;;15.73;89.40;101808.16;1941187;29;20114;-80
2022/08/31 00:38:45;;;;;;;3.53;2.72;;;;;;;15.75;88.80;101803.66;1933757;29;20447;-80
2022/08/31 00:39:42;;;;;;;3.15;2.95;;;;;;;15.70;91.56;101807.38;1940251;29;20024;-79
2022/08/31 00:40:44;;;;;;;9.13;3.00;;;;;;;15.74;88.73;101807.22;1932762;29;20036;-82
2022/08/31 00:41:42;;;;;;;3.35;3.03;;;;;;;15.68;91.47;101809.22;1925402;29;20171;-81
2022/08/31 00:42:40;;;;;;;3.22;2.80;;;;;;;15.69;89.38;101799.53;1940296;29;20043;-82
2022/08/31 00:43:51;;;;;;;5.32;3.15;;;;;;;15.68;89.84;101809.22;1947154;28;20031;-82
2022/08/31 00:44:48;;;;;;;3.40;3.10;;;;;;;15.70;89.12;101804.75;1947755;29;20061;-81
2022/08/31 00:45:46;;;;;;;4.15;2.80;;;;;;;15.69;88.82;101805.69;1947949;28;20362;-80
2022/08/31 00:46:44;;;;;;;3.50;3.13;;;;;;;15.71;88.36;101802.97;1941105;29;20031;-80
2022/08/31 00:47:41;;;;;;;5.18;3.15;;;;;;;15.70;88.93;101803.88;1932702;29;20042;-80
2022/08/31 00:49:03;;;;;;;3.30;3.00;;;;;;;15.69;91.45;101803.03;1932933;29;20036;-84
2022/08/31 00:50:09;;;;;;;3.17;2.88;;;;;;;15.66;91.94;101799.69;1940826;29;20027;-83
2022/08/31 00:51:06;;;;;;;4.20;2.88;;;;;;;15.70;90.88;101802.09;1940800;29;20466;-79
2022/08/31 00:52:13;;;;;;;3.00;2.80;;;;;;;15.74;90.96;101801.97;1932826;29;20043;-83
2022/08/31 00:53:11;;;;;;;5.75;2.90;;;;;;;15.71;91.13;101798.53;1940590;29;20118;-82
2022/08/31 00:54:13;;;;;;;3.15;2.58;;;;;;;15.71;90.65;101798.53;1940307;29;20031;-80
2022/08/31 00:55:35;;;;;;;4.20;3.03;;;;;;;15.71;90.10;101798.53;1940260;29;20035;-82
2022/08/31 00:56:35;;;;;;;5.38;2.90;;;;;;;15.67;91.23;101797.00;1940565;29;20446;-80
2022/08/31 00:57:37;;;;;;;3.42;2.80;;;;;;;15.71;89.15;101787.19;1940395;29;20031;-80
2022/08/31 00:58:35;;;;;;;4.43;3.00;;;;;;;15.68;91.67;101798.69;1940191;29;20039;-79
2022/08/31 00:59:34;;;;;;;3.90;2.78;;;;;;;15.65;90.75;101796.22;1940334;29;20037;-83
2022/08/31 01:00:32;;;;;;;3.78;3.00;;;;;;;15.67;91.79;101798.78;1947142;28;20054;-81
2022/08/31 01:01:29;;;;;;;4.57;3.17;;;;;;;15.66;90.27;101800.56;1940343;29;20463;-81
2022/08/31 01:02:27;;;;;;;4.25;3.20;;;;;;;15.68;89.41;101801.31;1925964;29;20035;-83
2022/08/31 01:03:24;;;;;;;3.45;2.80;;;;;;;15.68;89.84;101796.06;1931993;29;20456;-80
2022/08/31 01:04:22;;;;;;;3.17;2.83;;;;;;;15.68;90.18;101803.94;1939428;29;20483;-80
2022/08/31 01:05:20;;;;;;;5.07;3.00;;;;;;;15.69;89.48;101800.41;1940269;29;20023;-82
2022/08/31 01:06:18;;;;;;;4.05;2.95;;;;;;;15.67;90.66;101802.25;1939951;29;20056;-81
2022/08/31 01:07:16;;;;;;;4.18;2.90;;;;;;;15.69;89.43;101800.41;1940736;29;20109;-82
2022/08/31 01:08:13;;;;;;;6.13;2.72;;;;;;;15.70;89.95;101802.09;1940285;29;20040;-82
2022/08/31 01:09:12;;;;;;;3.15;2.85;;;;;;;15.69;89.59;101802.19;1940896;28;20307;-81
2022/08/31 01:10:10;;;;;;;6.05;3.13;;;;;;;15.67;91.88;101802.25;1933210;29;20046;-82
2022/08/31 01:11:08;;;;;;;3.35;2.72;;;;;;;15.68;90.02;101805.75;1933312;29;20068;-80
2022/08/31 01:12:07;;;;;;;4.50;2.95;;;;;;;15.73;89.24;101805.53;1947015;29;20023;-79
2022/08/31 01:13:06;;;;;;;3.10;2.72;;;;;;;15.71;88.92;101808.22;1933136;29;20044;-81
2022/08/31 01:14:03;;;;;;;3.15;2.85;;;;;;;15.67;89.80;101804.88;1925845;29;20036;-80
2022/08/31 01:15:05;;;;;;;4.32;2.70;;;;;;;15.63;90.81;101800.69;1939357;29;20111;-82
2022/08/31 01:16:15;;;;;;;3.45;3.00;;;;;;;15.65;90.98;101801.50;1947585;29;20027;-80
2022/08/31 01:17:13;;;;;;;3.33;3.03;;;;;;;15.62;90.10;101801.63;1939402;29;20045;-80
2022/08/31 01:18:11;;;;;;;6.53;3.10;;;;;;;15.62;90.36;101799.00;1940071;29;20026;-80
2022/08/31 01:19:33;;;;;;;3.40;3.13;;;;;;;15.64;92.12;101799.75;1940189;29;20030;-80
2022/08/31 01:21:18;;;;;;;3.95;2.80;;;;;;;15.60;92.30;101800.84;1933857;29;20028;-81
2022/08/31 01:22:35;;;;;;;4.82;3.20;;;;;;;15.58;90.73;101793.03;1922081;29;20074;-82
2022/08/31 01:23:41;;;;;;;3.60;3.00;;;;;;;15.53;91.31;101799.47;1934454;29;20032;-81
2022/08/31 01:24:44;;;;;;;7.05;3.15;;;;;;;15.49;92.45;101797.88;1946807;28;20033;-81
2022/08/31 01:25:45;;;;;;;3.30;2.88;;;;;;;15.51;90.45;101796.91;1939930;29;20050;-82
2022/08/31 01:26:43;;;;;;;3.30;3.00;;;;;;;15.52;90.94;101792.47;1940142;29;20039;-81
2022/08/31 01:27:41;;;;;;;3.83;3.13;;;;;;;15.53;90.78;101800.28;1939983;29;20028;-81
2022/08/31 01:28:41;;;;;;;4.45;3.13;;;;;;;15.51;93.37;101799.53;1933270;28;20325;-81
2022/08/31 01:29:41;;;;;;;5.05;3.20;;;;;;;15.54;91.33;101796.72;1939865;29;20074;-81
2022/08/31 01:30:43;;;;;;;4.18;3.13;;;;;;;15.56;92.77;101799.28;1947507;28;20046;-83
2022/08/31 01:31:45;;;;;;;3.30;2.92;;;;;;;15.56;90.19;101794.88;1939834;29;20184;-79
2022/08/31 01:32:42;;;;;;;3.17;2.92;;;;;;;15.57;90.13;101793.13;1940056;29;20138;-81
2022/08/31 01:33:39;;;;;;;7.82;3.05;;;;;;;15.54;91.82;101791.47;1947554;28;20102;-81
2022/08/31 01:34:37;;;;;;;3.50;3.20;;;;;;;15.53;90.99;101794.19;1940682;29;20061;-82
2022/08/31 01:35:35;;;;;;;6.13;3.33;;;;;;;15.44;92.81;101795.50;1933056;29;20168;-80
2022/08/31 01:36:35;;;;;;;4.70;2.97;;;;;;;15.47;91.04;101794.47;1933379;29;20129;-81
2022/08/31 01:37:33;;;;;;;3.00;2.80;;;;;;;15.48;91.20;101797.03;1947168;29;20413;-80
2022/08/31 01:38:33;;;;;;;2.92;2.72;;;;;;;15.48;90.87;101789.16;1932994;29;20068;-83
2022/08/31 01:39:30;;;;;;;3.17;2.78;;;;;;;15.40;93.66;101794.75;1932911;29;20032;-81
2022/08/31 01:40:36;;;;;;;3.22;2.97;;;;;;;15.40;92.07;101792.13;1939456;29;20039;-82
2022/08/31 01:41:34;;;;;;;3.97;3.17;;;;;;;15.36;91.81;101792.38;1932281;29;20032;-81
2022/08/31 01:42:32;;;;;;;3.42;3.10;;;;;;;15.31;94.46;101800.47;1932544;29;20048;-79
2022/08/31 01:43:34;;;;;;;4.35;3.13;;;;;;;15.28;92.66;101795.34;1939239;29;20027;-80
2022/08/31 01:44:32;;;;;;;3.63;3.33;;;;;;;15.24;94.88;101799.06;1939987;29;20023;-82
2022/08/31 01:45:30;;;;;;;3.97;3.03;;;;;;;15.23;92.97;101803.47;1932743;29;20038;-80
2022/08/31 01:46:27;;;;;;;4.03;3.20;;;;;;;15.26;92.92;101799.84;1939836;29;20501;-80
2022/08/31 01:47:24;;;;;;;4.97;3.17;;;;;;;15.27;91.77;101809.44;1940134;29;20039;-82
2022/08/31 01:48:22;;;;;;;6.03;3.30;;;;;;;15.25;93.33;101808.63;1940626;28;20037;-82
2022/08/31 01:49:22;;;;;;;5.55;3.17;;;;;;;15.19;94.40;101808.00;1940081;29;20084;-79
2022/08/31 01:50:20;;;;;;;3.10;2.83;;;;;;;15.22;92.59;101804.38;1925456;29;20448;-81
2022/08/31 01:51:20;;;;;;;3.47;3.15;;;;;;;15.19;95.11;101810.63;1932340;29;20092;-82
2022/08/31 01:52:18;;;;;;;4.43;3.30;;;;;;;15.21;92.52;101813.19;1946888;29;20167;-81
2022/08/31 01:53:16;;;;;;;4.53;3.17;;;;;;;15.22;92.69;101807.00;1940470;29;20035;-80
2022/08/31 01:54:14;;;;;;;4.57;2.90;;;;;;;15.22;92.25;101811.44;1933557;29;20036;-82
2022/08/31 01:55:11;;;;;;;3.53;3.10;;;;;;;15.18;92.82;101810.72;1932749;29;20165;-82
2022/08/31 01:56:18;;;;;;;5.60;3.10;;;;;;;15.15;94.69;101806.44;1932183;29;20044;-81
2022/08/31 01:57:16;;;;;;;4.82;3.00;;;;;;;15.07;94.19;101811.22;1939853;29;20106;-80
2022/08/31 01:58:13;;;;;;;3.20;2.90;;;;;;;15.07;94.01;101805.97;1947058;29;20510;-84
2022/08/31 01:59:14;;;;;;;5.10;3.30;;;;;;;15.06;95.64;101806.88;1940489;28;20490;-81
2022/08/31 02:00:12;;;;;;;3.80;2.92;;;;;;;15.02;94.33;101803.53;1932666;29;20081;-81
2022/08/31 02:01:11;;;;;;;3.33;3.03;;;;;;;15.03;96.51;101809.66;1939783;29;20408;-81
2022/08/31 02:02:11;;;;;;;6.10;2.97;;;;;;;15.05;93.50;101806.03;1939832;29;20104;-82
2022/08/31 02:03:12;;;;;;;3.88;3.00;;;;;;;15.05;94.10;101808.66;1932545;29;20452;-80
2022/08/31 02:04:13;;;;;;;5.80;3.30;;;;;;;15.11;93.01;101804.88;1932342;29;20028;-82
2022/08/31 02:05:13;;;;;;;4.97;3.10;;;;;;;15.12;93.00;101806.59;1932181;29;20137;-82
2022/08/31 02:06:12;;;;;;;3.65;3.22;;;;;;;15.08;94.29;101810.28;1939713;29;20115;-83
2022/08/31 02:07:09;;;;;;;3.97;3.20;;;;;;;15.04;94.04;101804.31;1932536;29;20032;-82
2022/08/31 02:08:11;;;;;;;5.15;3.00;;;;;;;15.02;96.30;101805.31;1939268;29;20058;-83
2022/08/31 02:09:09;;;;;;;4.25;3.33;;;;;;;15.10;94.06;101808.44;1947010;28;20027;-82
2022/08/31 02:10:08;;;;;;;3.30;3.00;;;;;;;15.07;93.92;101816.47;1939835;29;20028;-82
2022/08/31 02:11:07;;;;;;;4.15;3.30;;;;;;;15.05;95.83;101813.91;1947145;29;20028;-82
2022/08/31 02:12:04;;;;;;;4.85;3.08;;;;;;;15.09;93.36;101814.59;1939822;29;20110;-81
2022/08/31 02:13:03;;;;;;;5.18;3.33;;;;;;;15.05;94.07;101815.69;1932852;29;20039;-82
2022/08/31 02:14:01;;;;;;;5.38;3.50;;;;;;;15.04;92.96;101814.84;1939096;29;20034;-83
2022/08/31 02:14:59;;;;;;;9.23;3.63;;;;;;;15.02;94.03;101811.41;1939571;29;20347;-81
2022/08/31 02:15:57;;;;;;;3.30;3.00;;;;;;;15.03;93.16;101817.53;1939702;29;20023;-80
2022/08/31 02:16:54;;;;;;;3.50;3.20;;;;;;;15.02;92.90;101811.41;1939703;29;20041;-80
2022/08/31 02:17:52;;;;;;;3.30;3.03;;;;;;;14.97;93.85;101815.19;1940200;29;20028;-83
2022/08/31 02:18:50;;;;;;;3.45;2.90;;;;;;;14.92;94.81;101810.97;1939655;29;20363;-81
2022/08/31 02:19:48;;;;;;;3.45;3.10;;;;;;;14.90;96.70;101817.25;1947224;28;20406;-81
2022/08/31 02:20:45;;;;;;;3.40;3.10;;;;;;;14.84;95.73;101812.25;1946885;29;20027;-83
2022/08/31 02:21:43;;;;;;;3.17;2.92;;;;;;;14.86;94.31;101810.41;1940503;28;20035;-81
2022/08/31 02:22:41;;;;;;;3.55;3.25;;;;;;;14.89;94.29;101816.38;1932823;29;20034;-82
2022/08/31 02:23:41;;;;;;;4.13;3.03;;;;;;;14.88;94.68;101809.41;1932140;29;20036;-81
2022/08/31 02:24:38;;;;;;;;;;;;;;;14.83;97.08;101815.81;1939675;29;20098;-81
2022/08/31 02:25:36;;;;;;;3.28;2.97;;;;;;;14.80;93.99;101814.16;1939424;29;20341;-82
2022/08/31 02:26:33;;;;;;;3.58;3.28;;;;;;;14.82;96.85;101814.97;1932257;29;20123;-82
2022/08/31 02:27:31;;;;;;;3.88;3.20;;;;;;;14.86;95.29;101820.94;1932061;29;20083;-81
2022/08/31 02:28:29;;;;;;;5.45;3.08;;;;;;;14.82;95.69;101820.22;1938705;29;20026;-84
2022/08/31 02:29:26;;;;;;;4.18;3.15;;;;;;;14.85;96.21;101819.22;1932883;29;20088;-80
2022/08/31 02:30:24;;;;;;;3.67;3.08;;;;;;;14.83;95.58;101826.31;1939114;29;20036;-81
2022/08/31 02:31:22;;;;;;;3.50;3.08;;;;;;;14.84;94.91;101818.38;1939495;29;20029;-81
2022/08/31 02:32:20;;;;;;;6.88;3.25;;;;;;;14.84;96.37;101818.38;1939483;29;20028;-80
2022/08/31 02:33:17;;;;;;;3.75;2.95;;;;;;;14.87;96.05;101812.97;1939579;29;20416;-80
2022/08/31 02:34:16;;;;;;;5.70;3.50;;;;;;;14.99;94.99;101821.22;1939442;29;20383;-82
2022/08/31 02:35:13;;;;;;;4.85;3.05;;;;;;;14.98;93.91;101819.53;1947042;29;20030;-81
2022/08/31 02:36:11;;;;;;;5.57;3.30;;;;;;;14.97;94.88;101817.81;1946615;28;20074;-80
2022/08/31 02:37:09;;;;;;;3.83;3.13;;;;;;;14.98;96.04;101823.00;1939756;29;20053;-80
2022/08/31 02:38:11;;;;;;;3.20;2.90;;;;;;;15.00;93.76;101817.66;1932607;29;20031;-82
2022/08/31 02:39:12;;;;;;;3.08;2.88;;;;;;;14.95;95.82;101820.50;1939730;29;20455;-82
2022/08/31 02:40:10;;;;;;;5.72;3.38;;;;;;;14.90;95.48;101818.09;1946885;28;20118;-81
2022/08/31 02:41:07;;;;;;;3.58;3.15;;;;;;;14.92;96.25;101815.41;1939603;29;20364;-81
2022/08/31 02:42:05;;;;;;;4.28;3.20;;;;;;;14.88;96.38;101819.94;1939581;29;20030;-82
2022/08/31 02:43:09;;;;;;;4.30;3.10;;;;;;;14.89;96.42;101821.63;1939558;29;20023;-80
2022/08/31 02:44:06;;;;;;;3.08;2.83;;;;;;;14.88;96.07;101819.09;1940043;29;20087;-81
2022/08/31 02:45:06;;;;;;;3.72;3.03;;;;;;;14.86;96.63;101816.53;1939905;29;20032;-82
2022/08/31 02:46:04;;;;;;;4.72;3.38;;;;;;;14.88;94.44;101819.09;1940074;29;20041;-82
2022/08/31 02:47:01;;;;;;;4.80;3.13;;;;;;;14.87;94.80;101820.88;1947050;29;20023;-81
2022/08/31 02:47:59;;;;;;;6.18;3.05;;;;;;;14.83;96.71;101819.28;1947029;29;20054;-80
2022/08/31 02:48:56;;;;;;;4.38;3.10;;;;;;;14.86;94.53;101827.06;1932833;29;20192;-80
2022/08/31 02:49:54;;;;;;;3.65;3.35;;;;;;;14.85;95.26;101817.44;1932130;29;20613;-81
2022/08/31 02:50:52;;;;;;;3.58;3.28;;;;;;;14.86;94.18;101819.16;1938745;29;20032;-81
2022/08/31 02:51:50;;;;;;;3.83;3.00;;;;;;;14.85;94.83;101809.56;1932610;29;20119;-80
2022/08/31 02:52:48;;;;;;;3.15;2.95;;;;;;;14.80;95.37;101812.41;1932008;29;20028;-80
2022/08/31 02:53:46;;;;;;;4.40;3.38;;;;;;;14.77;95.30;101817.78;1946403;29;20042;-82
2022/08/31 02:54:44;;;;;;;3.30;3.08;;;;;;;14.71;95.69;101811.94;1946862;28;20023;-83
2022/08/31 02:55:42;;;;;;;3.40;3.10;;;;;;;14.72;94.76;101816.25;1940165;29;20046;-80
2022/08/31 02:56:40;;;;;;;4.25;3.25;;;;;;;14.66;96.93;101810.38;1932590;29;20032;-82
2022/08/31 02:57:37;;;;;;;5.38;3.55;;;;;;;14.64;96.86;101812.19;1939521;29;20481;-79
2022/08/31 02:58:38;;;;;;;3.45;3.10;;;;;;;14.62;97.12;101808.81;1946149;28;20039;-83
2022/08/31 02:59:35;;;;;;;4.38;3.38;;;;;;;14.61;95.53;101812.31;1939732;28;20039;-81
2022/08/31 03:00:33;;;;;;;3.63;3.10;;;;;;;14.62;96.36;101818.44;1939118;29;20028;-81
2022/08/31 03:01:31;;;;;;;5.55;3.40;;;;;;;14.61;96.06;101807.06;1946693;29;20031;-80
2022/08/31 03:02:28;;;;;;;3.22;2.92;;;;;;;14.66;96.16;101807.75;1947071;29;20102;-81
2022/08/31 03:03:26;;;;;;;3.42;3.13;;;;;;;14.65;96.45;101807.81;1932710;29;20046;-82
2022/08/31 03:04:24;;;;;;;4.40;3.17;;;;;;;14.62;96.39;101808.81;1924532;29;20076;-81
2022/08/31 03:05:22;;;;;;;3.28;3.00;;;;;;;14.61;96.13;101814.94;1931185;29;20036;-82
2022/08/31 03:06:21;;;;;;;3.63;3.33;;;;;;;14.60;96.23;101815.88;1938611;29;20477;-80
2022/08/31 03:07:18;;;;;;;5.05;3.40;;;;;;;14.59;95.30;101813.31;1939338;29;20066;-82
2022/08/31 03:08:17;;;;;;;7.60;3.50;;;;;;;14.57;95.34;101810.75;1946933;29;20042;-80
2022/08/31 03:09:14;;;;;;;7.90;3.63;;;;;;;14.53;97.33;101810.06;1946677;29;20040;-81
2022/08/31 03:10:13;;;;;;;3.28;3.05;;;;;;;14.52;97.43;101810.13;1942082;29;20074;-81
2022/08/31 03:11:11;;;;;;;6.05;3.28;;;;;;;14.46;98.29;101811.22;1938126;29;20039;-79
2022/08/31 03:12:11;;;;;;;3.95;3.50;;;;;;;14.46;96.25;101810.38;1935540;29;20114;-80
2022/08/31 03:13:11;;;;;;;;;;;;;;;14.41;97.89;101811.41;1934329;29;20039;-80
2022/08/31 03:14:12;;;;;;;3.70;3.40;;;;;;;14.40;97.02;101809.72;1946943;29;20039;-82
2022/08/31 03:15:10;;;;;;;6.05;3.65;;;;;;;14.45;96.68;101813.91;1940722;29;20480;-82
2022/08/31 03:16:11;;;;;;;3.70;3.40;;;;;;;14.41;97.75;101808.81;1946606;29;20031;-78
2022/08/31 03:17:08;;;;;;;;;;;;;;;14.41;97.99;101815.84;1946980;28;20490;-80
2022/08/31 03:18:06;;;;;;;3.72;3.40;;;;;;;14.42;95.89;101812.28;1939416;28;19911;-82
2022/08/31 03:19:03;;;;;;;4.35;3.70;;;;;;;14.45;96.48;101811.28;1939113;29;20030;-81
2022/08/31 03:20:06;;;;;;;4.35;3.72;;;;;;;14.39;95.97;101809.78;1939593;29;20363;-83
2022/08/31 03:21:03;;;;;;;3.72;3.42;;;;;;;14.38;96.74;101805.47;1938973;29;20023;-80
2022/08/31 03:22:01;;;;;;;4.15;3.45;;;;;;;14.36;98.25;101808.16;1939076;29;20515;-80
2022/08/31 03:22:58;;;;;;;4.28;3.88;;;;;;;14.39;95.96;101805.41;1931761;29;20016;-82
2022/08/31 03:23:56;;;;;;;4.50;3.63;;;;;;;14.35;96.96;101801.19;1931645;29;20087;-79
2022/08/31 03:24:54;;;;;;;5.50;3.53;;;;;;;14.36;95.93;101808.16;1938843;29;20103;-81
2022/08/31 03:25:51;;;;;;;4.38;3.97;;;;;;;14.35;96.07;101806.47;1939546;29;20067;-81
2022/08/31 03:26:48;;;;;;;4.50;3.95;;;;;;;14.37;96.49;101809.00;1939297;29;20150;-80
2022/08/31 03:27:46;;;;;;;5.55;4.03;;;;;;;14.34;98.03;101804.72;1938616;29;20023;-80
2022/08/31 03:28:43;;;;;;;4.00;3.70;;;;;;;14.35;97.39;101811.72;1939119;29;20183;-80
2022/08/31 03:29:41;;;;;;;3.97;3.38;;;;;;;14.32;97.21;101817.09;1938947;29;20036;-83
2022/08/31 03:30:39;;;;;;;4.20;3.80;;;;;;;14.33;96.41;101813.53;1932710;29;20111;-81
2022/08/31 03:31:36;;;;;;;3.80;3.50;;;;;;;14.31;96.12;101818.00;1939033;29;20038;-81
2022/08/31 03:32:34;;;;;;;3.92;3.53;;;;;;;14.24;98.74;101812.16;1939131;29;20023;-82
2022/08/31 03:33:32;;;;;;;4.75;3.15;;;;;;;14.22;98.94;101816.63;1939183;29;20028;-81
2022/08/31 03:34:29;;;;;;;3.75;3.50;;;;;;;14.24;96.66;101814.78;1939345;29;20040;-80
2022/08/31 03:35:27;;;;;;;3.85;3.53;;;;;;;14.24;96.70;101813.94;1939585;29;20027;-81
2022/08/31 03:36:24;;;;;;;6.03;3.55;;;;;;;14.20;96.72;101813.19;1938871;29;20042;-80
2022/08/31 03:37:22;;;;;;;4.57;3.58;;;;;;;14.22;95.95;101813.13;1939301;29;20467;-79
2022/08/31 03:38:20;;;;;;;5.03;3.55;;;;;;;14.21;97.58;101814.06;1939158;29;20098;-80
2022/08/31 03:39:17;;;;;;;4.55;3.63;;;;;;;14.18;98.55;101815.03;1931762;29;20028;-81
2022/08/31 03:40:18;;;;;;;17.17;4.15;;;;;;;14.20;96.81;101812.34;1931404;29;20972;-84
2022/08/31 03:41:22;;;;;;;9.52;3.60;;;;;;;14.22;96.81;101816.63;1938722;29;20035;-79
2022/08/31 03:42:20;;;;;;;3.67;3.33;;;;;;;14.18;98.77;101814.19;1939149;29;20495;-80
2022/08/31 03:43:17;;;;;;;4.57;3.45;;;;;;;14.20;97.26;101814.97;1939666;29;20043;-81
2022/08/31 03:44:15;;;;;;;4.15;3.40;;;;;;;14.21;97.27;101814.06;1939090;29;20068;-80
2022/08/31 03:45:13;;;;;;;3.80;3.30;;;;;;;14.18;98.66;101814.19;1939029;29;20051;-81
2022/08/31 03:46:10;;;;;;;5.28;3.60;;;;;;;14.17;99.19;101815.97;1939170;29;20035;-80
2022/08/31 03:47:08;;;;;;;4.53;3.90;;;;;;;14.20;96.86;101817.63;1931619;29;20429;-82
2022/08/31 03:48:07;;;;;;;5.00;3.45;;;;;;;14.18;98.15;101814.19;1924688;29;20024;-81
2022/08/31 03:49:06;;;;;;;3.70;3.40;;;;;;;14.21;96.25;101809.69;1931056;29;20066;-81
2022/08/31 03:50:05;;;;;;;5.00;3.67;;;;;;;14.19;97.16;101811.50;1938578;29;20119;-81
2022/08/31 03:51:02;;;;;;;6.53;3.67;;;;;;;14.16;97.78;101806.38;1939110;29;20038;-80
2022/08/31 03:52:01;;;;;;;3.85;3.25;;;;;;;14.13;98.59;101809.97;1931732;29;20114;-80
2022/08/31 03:53:03;;;;;;;3.50;3.20;;;;;;;14.12;97.37;101804.78;1931602;29;20032;-80
2022/08/31 03:54:00;;;;;;;4.30;3.40;;;;;;;14.11;98.06;101811.84;1939102;29;20055;-80
2022/08/31 03:54:58;;;;;;;3.75;3.20;;;;;;;14.16;97.37;101815.09;1931343;29;20043;-80
2022/08/31 03:56:00;;;;;;;3.88;3.58;;;;;;;14.12;98.79;101810.91;1931740;29;20115;-81
2022/08/31 03:56:58;;;;;;;3.40;3.10;;;;;;;14.12;97.61;101813.53;1939447;29;20024;-81
2022/08/31 03:57:56;;;;;;;3.85;3.35;;;;;;;14.14;97.58;101810.84;1939689;29;20472;-80
2022/08/31 03:58:53;;;;;;;5.63;3.30;;;;;;;14.15;96.67;101810.78;1939014;29;20046;-80
2022/08/31 03:59:59;;;;;;;5.20;3.20;;;;;;;14.13;97.12;101807.34;1939122;29;20111;-81
2022/08/31 04:00:57;;;;;;;6.15;3.38;;;;;;;14.15;97.34;101807.28;1939098;29;20030;-81
2022/08/31 04:01:54;;;;;;;6.28;3.88;;;;;;;14.17;97.27;101810.72;1939320;29;20062;-81
2022/08/31 04:02:52;;;;;;;3.58;3.28;;;;;;;14.18;96.72;101806.31;1939226;29;20434;-80
2022/08/31 04:03:49;;;;;;;3.38;3.08;;;;;;;14.15;98.12;101810.78;1939071;29;20426;-82
2022/08/31 04:04:52;;;;;;;4.03;3.55;;;;;;;14.16;96.36;101807.22;1939218;29;20022;-80
2022/08/31 04:05:50;;;;;;;3.55;3.03;;;;;;;14.18;96.85;101801.06;1939040;29;20024;-79
2022/08/31 04:06:48;;;;;;;3.78;3.40;;;;;;;14.16;96.80;101812.47;1931604;29;20054;-81
2022/08/31 04:07:45;;;;;;;3.60;3.30;;;;;;;14.11;97.15;101813.59;1928753;29;20043;-80
2022/08/31 04:08:43;;;;;;;3.40;3.10;;;;;;;14.12;96.83;101805.66;1938511;29;20035;-80
2022/08/31 04:09:42;;;;;;;5.03;3.15;;;;;;;14.18;95.91;101808.94;1939510;29;20031;-80
2022/08/31 04:10:43;;;;;;;3.75;3.00;;;;;;;14.13;96.48;101812.59;1931650;29;20032;-80
2022/08/31 04:11:43;;;;;;;3.35;3.05;;;;;;;14.15;96.41;101812.53;1931563;29;20134;-80
2022/08/31 04:12:40;;;;;;;;;;;;;;;14.12;97.48;101820.53;1939570;29;20089;-81
2022/08/31 04:13:41;;;;;;;3.78;3.40;;;;;;;14.11;96.02;101811.84;1938990;29;19915;-82
2022/08/31 04:14:41;;;;;;;;;;;;;;;14.09;96.75;101813.66;1939504;29;20447;-80
2022/08/31 04:15:41;;;;;;;5.60;2.90;;;;;;;14.12;96.20;101810.91;1938970;29;19929;-83
2022/08/31 04:16:40;;;;;;;3.60;3.03;;;;;;;14.14;95.39;101814.31;1939081;29;20028;-81
2022/08/31 04:17:40;;;;;;;3.63;3.30;;;;;;;14.15;95.32;101816.03;1938940;29;20031;-79
2022/08/31 04:18:40;;;;;;;4.63;3.08;;;;;;;14.19;95.13;101816.75;1939105;29;20024;-79
2022/08/31 04:19:40;;;;;;;4.03;3.10;;;;;;;14.15;95.54;101810.78;1939078;29;20038;-83
2022/08/31 04:20:41;;;;;;;3.22;2.92;;;;;;;14.19;95.17;101818.53;1939046;29;20519;-81
2022/08/31 04:21:39;;;;;;;3.20;2.90;;;;;;;14.18;95.21;101819.44;1939028;29;20468;-80
2022/08/31 04:22:37;;;;;;;6.28;3.10;;;;;;;14.14;95.07;101819.56;1938985;29;20034;-81
2022/08/31 04:23:38;;;;;;;3.85;3.08;;;;;;;14.14;95.81;101819.56;1939125;29;20375;-82
2022/08/31 04:24:35;;;;;;;5.22;3.03;;;;;;;14.17;95.13;101823.84;1931881;29;20040;-80
2022/08/31 04:25:38;;;;;;;3.75;3.10;;;;;;;14.18;94.27;101827.31;1931563;29;20466;-79
2022/08/31 04:26:39;;;;;;;5.30;3.05;;;;;;;14.14;94.98;101824.81;1938843;29;20039;-81
2022/08/31 04:27:37;;;;;;;3.78;2.70;;;;;;;14.07;94.85;101826.00;1938937;29;20382;-82
2022/08/31 04:28:34;;;;;;;3.75;3.20;;;;;;;14.01;96.63;101821.00;1938978;29;20038;-81
2022/08/31 04:29:31;;;;;;;4.32;2.88;;;;;;;13.98;95.70;101819.34;1939032;29;20100;-82
2022/08/31 04:30:29;;;;;;;4.50;3.13;;;;;;;13.97;95.55;101829.91;1939118;29;20024;-82
2022/08/31 04:31:28;;;;;;;6.03;3.00;;;;;;;13.96;95.22;101825.59;1938885;29;20027;-79
2022/08/31 04:32:26;;;;;;;6.95;3.30;;;;;;;13.93;95.36;101825.72;1938930;29;20057;-80
2022/08/31 04:33:23;;;;;;;3.10;2.80;;;;;;;13.93;95.09;101820.47;1938983;29;20393;-81
2022/08/31 04:34:21;;;;;;;4.22;2.95;;;;;;;13.86;95.77;101825.94;1938879;29;20447;-81
2022/08/31 04:35:18;;;;;;;3.53;2.90;;;;;;;13.80;96.61;101830.59;1939071;29;20469;-82
2022/08/31 04:36:24;;;;;;;4.82;3.08;;;;;;;13.85;95.50;101829.50;1939060;29;20031;-80
2022/08/31 04:37:21;;;;;;;3.83;2.90;;;;;;;13.79;96.50;101824.47;1939030;29;20068;-82
2022/08/31 04:38:18;;;;;;;3.20;2.90;;;;;;;13.72;96.84;101828.28;1939100;29;20542;-80
2022/08/31 04:39:17;;;;;;;3.92;3.13;;;;;;;13.74;96.69;101831.69;1932369;29;20043;-80
2022/08/31 04:40:18;;;;;;;3.58;2.97;;;;;;;13.72;96.39;101829.13;1938920;29;20435;-80